レイキャビク/ケフラヴィーク の空港の天気 - METARとTAF

ケフラヴィーク国際空港 ( BIKF / KEF ) - アイスランド ケプラヴィーク
飛行場実況気象(Metar)
観測時間06/17 19:30 GMT (06/17 19:30 UTC)
風向・風速北 9m/s
視程10km以上
天気現象
なし
気温11℃
湿度76%
気圧1004hPa
METARBIKF 171930Z 01018KT CAVOK 11/07 Q1004
過去の天気等 Google飛行場航空写真 Wunderground天気予報

過去48時間のMETAR

飛行場予報(TAF)
発表時間: 6/13 01:54 GMT (6/13 01:54 UTC)
予報対象時間: 13日3時 GMT ~ 14日3時 GMT
風向・風速西北西 6m/s
視程1000m
天気現象
全天を覆う雲 鉛直視程 90m
13日3時 GMT ~ 13日9時 GMT に一時的に
視程10km以上
天気現象運行に影響にある天気現象が終了
全天の8割程度の雲 雲底高度 240m
13日3時 GMT ~ 13日6時 GMT に 確率 40% で一時的に
視程400m
天気現象
全天を覆う雲 鉛直視程 30m
13日10時 GMT ~ 13日13時 GMT に徐々に
少しの雲 雲底高度 760m
全天の4割程度の雲 雲底高度 1070m
13日22時 GMT ~ 13日24時 GMT に徐々に
風向・風速南 8m/s
TAF BIKF 130154Z 1303/1403 30012KT 1000 FG VV003 TX13/1315Z TN09/1305Z
TEMPO 1303/1309 9999 NSW BKN008
PROB40 TEMPO 1303/1306 0400 FG VV001
BECMG 1310/1313 FEW025 SCT035
BECMG 1322/1400 17015KT